sensor_id;sensor_type;location;lat;lon;timestamp;P1;durP1;ratioP1;P2;durP2;ratioP2
30458;SDS011;17254;50.976;7.034;2022-08-19T00:00:26;32.75;;;25.02;;
30458;SDS011;17254;50.976;7.034;2022-08-19T00:00:57;32.25;;;25.02;;
30458;SDS011;17254;50.976;7.034;2022-08-19T00:01:30;34.22;;;25.08;;
30458;SDS011;17254;50.976;7.034;2022-08-19T00:02:01;26.95;;;23.58;;
30458;SDS011;17254;50.976;7.034;2022-08-19T00:02:32;35.38;;;26.17;;
30458;SDS011;17254;50.976;7.034;2022-08-19T00:03:04;36.53;;;25.20;;
30458;SDS011;17254;50.976;7.034;2022-08-19T00:03:36;30.88;;;24.05;;
30458;SDS011;17254;50.976;7.034;2022-08-19T00:04:09;32.47;;;25.05;;
30458;SDS011;17254;50.976;7.034;2022-08-19T00:04:43;36.75;;;26.40;;
30458;SDS011;17254;50.976;7.034;2022-08-19T00:05:17;32.47;;;25.58;;
30458;SDS011;17254;50.976;7.034;2022-08-19T00:05:50;37.58;;;25.20;;
30458;SDS011;17254;50.976;7.034;2022-08-19T00:06:22;30.63;;;23.85;;
30458;SDS011;17254;50.976;7.034;2022-08-19T00:06:53;35.08;;;24.50;;
30458;SDS011;17254;50.976;7.034;2022-08-19T00:07:25;31.30;;;24.95;;
30458;SDS011;17254;50.976;7.034;2022-08-19T00:07:59;31.17;;;24.75;;
30458;SDS011;17254;50.976;7.034;2022-08-19T00:08:38;32.03;;;24.95;;
30458;SDS011;17254;50.976;7.034;2022-08-19T00:09:10;32.92;;;25.35;;
30458;SDS011;17254;50.976;7.034;2022-08-19T00:09:44;33.65;;;24.55;;
30458;SDS011;17254;50.976;7.034;2022-08-19T00:10:17;34.33;;;25.48;;
30458;SDS011;17254;50.976;7.034;2022-08-19T00:10:49;28.75;;;23.00;;
30458;SDS011;17254;50.976;7.034;2022-08-19T00:11:20;33.90;;;25.92;;
30458;SDS011;17254;50.976;7.034;2022-08-19T00:11:51;32.10;;;25.30;;
30458;SDS011;17254;50.976;7.034;2022-08-19T00:12:25;31.38;;;24.00;;
30458;SDS011;17254;50.976;7.034;2022-08-19T00:12:56;30.20;;;24.27;;
30458;SDS011;17254;50.976;7.034;2022-08-19T00:13:30;31.85;;;26.05;;
30458;SDS011;17254;50.976;7.034;2022-08-19T00:14:03;29.58;;;25.05;;
30458;SDS011;17254;50.976;7.034;2022-08-19T00:14:34;32.38;;;24.85;;
30458;SDS011;17254;50.976;7.034;2022-08-19T00:15:06;34.17;;;26.98;;
30458;SDS011;17254;50.976;7.034;2022-08-19T00:15:41;32.38;;;25.10;;
30458;SDS011;17254;50.976;7.034;2022-08-19T00:16:14;30.38;;;24.75;;
30458;SDS011;17254;50.976;7.034;2022-08-19T00:16:48;30.00;;;24.55;;
30458;SDS011;17254;50.976;7.034;2022-08-19T00:17:21;33.30;;;24.70;;
30458;SDS011;17254;50.976;7.034;2022-08-19T00:17:52;30.27;;;24.88;;
30458;SDS011;17254;50.976;7.034;2022-08-19T00:18:25;32.40;;;24.75;;
30458;SDS011;17254;50.976;7.034;2022-08-19T00:18:56;30.42;;;25.45;;
30458;SDS011;17254;50.976;7.034;2022-08-19T00:19:28;32.47;;;24.80;;
30458;SDS011;17254;50.976;7.034;2022-08-19T00:20:02;31.13;;;25.50;;
30458;SDS011;17254;50.976;7.034;2022-08-19T00:20:34;34.55;;;26.23;;
30458;SDS011;17254;50.976;7.034;2022-08-19T00:21:05;34.75;;;24.95;;
30458;SDS011;17254;50.976;7.034;2022-08-19T00:21:37;36.28;;;25.17;;
30458;SDS011;17254;50.976;7.034;2022-08-19T00:22:09;32.28;;;25.45;;
30458;SDS011;17254;50.976;7.034;2022-08-19T00:22:40;30.05;;;25.05;;
30458;SDS011;17254;50.976;7.034;2022-08-19T00:23:12;33.95;;;26.58;;
30458;SDS011;17254;50.976;7.034;2022-08-19T00:23:43;32.65;;;25.77;;
30458;SDS011;17254;50.976;7.034;2022-08-19T00:24:23;32.95;;;26.60;;
30458;SDS011;17254;50.976;7.034;2022-08-19T00:24:57;31.60;;;26.02;;
30458;SDS011;17254;50.976;7.034;2022-08-19T00:25:28;35.10;;;26.02;;
30458;SDS011;17254;50.976;7.034;2022-08-19T00:25:59;37.53;;;26.75;;
30458;SDS011;17254;50.976;7.034;2022-08-19T00:26:31;35.13;;;26.15;;
30458;SDS011;17254;50.976;7.034;2022-08-19T00:27:03;35.92;;;27.30;;
30458;SDS011;17254;50.976;7.034;2022-08-19T00:27:34;33.28;;;25.40;;
30458;SDS011;17254;50.976;7.034;2022-08-19T00:28:06;33.40;;;25.10;;
30458;SDS011;17254;50.976;7.034;2022-08-19T00:28:38;33.90;;;25.55;;
30458;SDS011;17254;50.976;7.034;2022-08-19T00:29:09;30.77;;;25.80;;
30458;SDS011;17254;50.976;7.034;2022-08-19T00:29:44;34.35;;;24.80;;
30458;SDS011;17254;50.976;7.034;2022-08-19T00:30:15;32.85;;;24.90;;
30458;SDS011;17254;50.976;7.034;2022-08-19T00:30:46;33.17;;;25.17;;
30458;SDS011;17254;50.976;7.034;2022-08-19T00:31:18;33.92;;;25.95;;
30458;SDS011;17254;50.976;7.034;2022-08-19T00:31:49;32.47;;;26.90;;
30458;SDS011;17254;50.976;7.034;2022-08-19T00:32:23;35.55;;;25.92;;
30458;SDS011;17254;50.976;7.034;2022-08-19T00:32:56;34.80;;;25.83;;
30458;SDS011;17254;50.976;7.034;2022-08-19T00:33:27;27.98;;;24.27;;
30458;SDS011;17254;50.976;7.034;2022-08-19T00:34:00;31.38;;;25.98;;
30458;SDS011;17254;50.976;7.034;2022-08-19T00:34:32;29.95;;;24.77;;
30458;SDS011;17254;50.976;7.034;2022-08-19T00:35:05;34.10;;;26.45;;
30458;SDS011;17254;50.976;7.034;2022-08-19T00:35:37;34.78;;;25.35;;
30458;SDS011;17254;50.976;7.034;2022-08-19T00:36:10;32.53;;;24.42;;
30458;SDS011;17254;50.976;7.034;2022-08-19T00:36:42;31.75;;;25.63;;
30458;SDS011;17254;50.976;7.034;2022-08-19T00:37:13;32.22;;;26.05;;
30458;SDS011;17254;50.976;7.034;2022-08-19T00:37:46;33.10;;;27.13;;
30458;SDS011;17254;50.976;7.034;2022-08-19T00:38:18;28.23;;;22.98;;
30458;SDS011;17254;50.976;7.034;2022-08-19T00:38:52;32.35;;;25.85;;
30458;SDS011;17254;50.976;7.034;2022-08-19T00:39:25;38.63;;;24.40;;
30458;SDS011;17254;50.976;7.034;2022-08-19T00:39:56;34.55;;;23.67;;
30458;SDS011;17254;50.976;7.034;2022-08-19T00:40:27;30.98;;;24.20;;
30458;SDS011;17254;50.976;7.034;2022-08-19T00:41:00;29.05;;;24.27;;
30458;SDS011;17254;50.976;7.034;2022-08-19T00:41:31;31.00;;;24.80;;
30458;SDS011;17254;50.976;7.034;2022-08-19T00:42:03;33.17;;;23.80;;
30458;SDS011;17254;50.976;7.034;2022-08-19T00:42:36;30.17;;;24.50;;
30458;SDS011;17254;50.976;7.034;2022-08-19T00:43:08;35.42;;;25.33;;
30458;SDS011;17254;50.976;7.034;2022-08-19T00:43:39;32.63;;;25.58;;
30458;SDS011;17254;50.976;7.034;2022-08-19T00:44:13;32.72;;;25.90;;
30458;SDS011;17254;50.976;7.034;2022-08-19T00:44:51;31.45;;;24.42;;
30458;SDS011;17254;50.976;7.034;2022-08-19T00:45:25;34.72;;;27.35;;
30458;SDS011;17254;50.976;7.034;2022-08-19T00:46:02;33.25;;;25.98;;
30458;SDS011;17254;50.976;7.034;2022-08-19T00:46:35;32.72;;;26.00;;
30458;SDS011;17254;50.976;7.034;2022-08-19T00:47:08;30.67;;;25.67;;
30458;SDS011;17254;50.976;7.034;2022-08-19T00:47:41;37.67;;;26.38;;
30458;SDS011;17254;50.976;7.034;2022-08-19T00:48:12;31.45;;;24.88;;
30458;SDS011;17254;50.976;7.034;2022-08-19T00:48:43;37.45;;;25.92;;
30458;SDS011;17254;50.976;7.034;2022-08-19T00:49:16;30.25;;;25.40;;
30458;SDS011;17254;50.976;7.034;2022-08-19T00:49:51;30.80;;;26.08;;
30458;SDS011;17254;50.976;7.034;2022-08-19T00:50:26;35.10;;;24.52;;
30458;SDS011;17254;50.976;7.034;2022-08-19T00:50:58;35.42;;;26.00;;
30458;SDS011;17254;50.976;7.034;2022-08-19T00:51:29;33.90;;;25.92;;
30458;SDS011;17254;50.976;7.034;2022-08-19T00:52:03;39.53;;;26.08;;
30458;SDS011;17254;50.976;7.034;2022-08-19T00:52:37;35.58;;;26.95;;
30458;SDS011;17254;50.976;7.034;2022-08-19T00:53:15;32.58;;;25.60;;
30458;SDS011;17254;50.976;7.034;2022-08-19T00:53:49;31.67;;;25.45;;
30458;SDS011;17254;50.976;7.034;2022-08-19T00:54:22;32.33;;;25.35;;
30458;SDS011;17254;50.976;7.034;2022-08-19T00:54:57;31.50;;;24.85;;
30458;SDS011;17254;50.976;7.034;2022-08-19T00:55:30;32.00;;;25.92;;
30458;SDS011;17254;50.976;7.034;2022-08-19T00:56:02;37.75;;;26.70;;
30458;SDS011;17254;50.976;7.034;2022-08-19T00:56:36;33.70;;;25.27;;
30458;SDS011;17254;50.976;7.034;2022-08-19T00:57:08;35.28;;;25.88;;
30458;SDS011;17254;50.976;7.034;2022-08-19T00:57:45;34.53;;;25.58;;
30458;SDS011;17254;50.976;7.034;2022-08-19T00:58:24;37.53;;;24.90;;
30458;SDS011;17254;50.976;7.034;2022-08-19T00:58:59;31.98;;;25.33;;
30458;SDS011;17254;50.976;7.034;2022-08-19T00:59:33;32.90;;;25.40;;
30458;SDS011;17254;50.976;7.034;2022-08-19T01:00:09;31.13;;;24.80;;
30458;SDS011;17254;50.976;7.034;2022-08-19T01:00:43;31.98;;;24.75;;
30458;SDS011;17254;50.976;7.034;2022-08-19T01:01:15;34.70;;;26.88;;
30458;SDS011;17254;50.976;7.034;2022-08-19T01:01:46;34.92;;;26.35;;
30458;SDS011;17254;50.976;7.034;2022-08-19T01:02:17;40.53;;;25.50;;
30458;SDS011;17254;50.976;7.034;2022-08-19T01:02:49;32.47;;;27.30;;
30458;SDS011;17254;50.976;7.034;2022-08-19T01:03:21;36.63;;;26.55;;
30458;SDS011;17254;50.976;7.034;2022-08-19T01:03:52;31.30;;;26.38;;
30458;SDS011;17254;50.976;7.034;2022-08-19T01:04:23;31.13;;;27.10;;
30458;SDS011;17254;50.976;7.034;2022-08-19T01:04:54;30.77;;;26.00;;
30458;SDS011;17254;50.976;7.034;2022-08-19T01:05:28;35.55;;;27.02;;
30458;SDS011;17254;50.976;7.034;2022-08-19T01:05:59;32.33;;;26.45;;
30458;SDS011;17254;50.976;7.034;2022-08-19T01:06:32;31.80;;;26.17;;
30458;SDS011;17254;50.976;7.034;2022-08-19T01:07:05;35.67;;;27.60;;
30458;SDS011;17254;50.976;7.034;2022-08-19T01:07:37;29.88;;;25.45;;
30458;SDS011;17254;50.976;7.034;2022-08-19T01:08:11;33.03;;;27.05;;
30458;SDS011;17254;50.976;7.034;2022-08-19T01:08:44;33.38;;;27.45;;
30458;SDS011;17254;50.976;7.034;2022-08-19T01:09:15;38.47;;;25.92;;
30458;SDS011;17254;50.976;7.034;2022-08-19T01:09:47;33.72;;;26.60;;
30458;SDS011;17254;50.976;7.034;2022-08-19T01:10:19;33.70;;;26.45;;
30458;SDS011;17254;50.976;7.034;2022-08-19T01:10:54;33.30;;;26.48;;
30458;SDS011;17254;50.976;7.034;2022-08-19T01:11:29;35.58;;;26.95;;
30458;SDS011;17254;50.976;7.034;2022-08-19T01:12:02;34.10;;;26.52;;
30458;SDS011;17254;50.976;7.034;2022-08-19T01:12:34;31.67;;;24.35;;
30458;SDS011;17254;50.976;7.034;2022-08-19T01:13:06;32.17;;;25.85;;
30458;SDS011;17254;50.976;7.034;2022-08-19T01:13:38;36.78;;;27.95;;
30458;SDS011;17254;50.976;7.034;2022-08-19T01:14:10;37.15;;;25.85;;
30458;SDS011;17254;50.976;7.034;2022-08-19T01:14:43;29.92;;;26.05;;
30458;SDS011;17254;50.976;7.034;2022-08-19T01:15:17;32.05;;;25.00;;
30458;SDS011;17254;50.976;7.034;2022-08-19T01:15:54;37.00;;;25.77;;
30458;SDS011;17254;50.976;7.034;2022-08-19T01:16:32;29.95;;;25.40;;
30458;SDS011;17254;50.976;7.034;2022-08-19T01:17:05;35.75;;;26.60;;
30458;SDS011;17254;50.976;7.034;2022-08-19T01:17:38;33.38;;;24.40;;
30458;SDS011;17254;50.976;7.034;2022-08-19T01:18:12;36.92;;;26.08;;
30458;SDS011;17254;50.976;7.034;2022-08-19T01:18:44;32.65;;;26.40;;
30458;SDS011;17254;50.976;7.034;2022-08-19T01:19:17;31.23;;;25.15;;
30458;SDS011;17254;50.976;7.034;2022-08-19T01:19:58;33.75;;;25.83;;
30458;SDS011;17254;50.976;7.034;2022-08-19T01:20:31;30.92;;;25.27;;
30458;SDS011;17254;50.976;7.034;2022-08-19T01:21:05;31.90;;;26.38;;
30458;SDS011;17254;50.976;7.034;2022-08-19T01:21:42;30.50;;;24.05;;
30458;SDS011;17254;50.976;7.034;2022-08-19T01:22:19;30.75;;;23.83;;
30458;SDS011;17254;50.976;7.034;2022-08-19T01:22:58;36.45;;;26.20;;
30458;SDS011;17254;50.976;7.034;2022-08-19T01:23:30;33.55;;;26.88;;
30458;SDS011;17254;50.976;7.034;2022-08-19T01:24:12;37.40;;;25.85;;
30458;SDS011;17254;50.976;7.034;2022-08-19T01:24:43;34.38;;;26.67;;
30458;SDS011;17254;50.976;7.034;2022-08-19T01:25:16;36.50;;;27.88;;
30458;SDS011;17254;50.976;7.034;2022-08-19T01:25:55;37.38;;;27.15;;
30458;SDS011;17254;50.976;7.034;2022-08-19T01:26:26;31.42;;;26.02;;
30458;SDS011;17254;50.976;7.034;2022-08-19T01:26:58;32.70;;;26.77;;
30458;SDS011;17254;50.976;7.034;2022-08-19T01:27:36;32.85;;;27.80;;
30458;SDS011;17254;50.976;7.034;2022-08-19T01:28:08;38.55;;;26.67;;
30458;SDS011;17254;50.976;7.034;2022-08-19T01:28:46;34.15;;;26.55;;
30458;SDS011;17254;50.976;7.034;2022-08-19T01:29:18;38.25;;;28.40;;
30458;SDS011;17254;50.976;7.034;2022-08-19T01:29:49;36.08;;;28.50;;
30458;SDS011;17254;50.976;7.034;2022-08-19T01:30:22;30.80;;;26.50;;
30458;SDS011;17254;50.976;7.034;2022-08-19T01:31:00;40.60;;;28.73;;
30458;SDS011;17254;50.976;7.034;2022-08-19T01:31:31;37.33;;;29.52;;
30458;SDS011;17254;50.976;7.034;2022-08-19T01:32:03;35.03;;;26.92;;
30458;SDS011;17254;50.976;7.034;2022-08-19T01:32:34;35.40;;;28.90;;
30458;SDS011;17254;50.976;7.034;2022-08-19T01:33:06;34.35;;;27.92;;
30458;SDS011;17254;50.976;7.034;2022-08-19T01:33:38;35.03;;;27.85;;
30458;SDS011;17254;50.976;7.034;2022-08-19T01:34:09;35.08;;;28.88;;
30458;SDS011;17254;50.976;7.034;2022-08-19T01:34:40;41.67;;;27.52;;
30458;SDS011;17254;50.976;7.034;2022-08-19T01:35:17;38.60;;;28.55;;
30458;SDS011;17254;50.976;7.034;2022-08-19T01:35:48;34.00;;;28.67;;
30458;SDS011;17254;50.976;7.034;2022-08-19T01:36:23;39.47;;;28.75;;
30458;SDS011;17254;50.976;7.034;2022-08-19T01:36:58;39.00;;;29.13;;
30458;SDS011;17254;50.976;7.034;2022-08-19T01:37:40;36.97;;;28.52;;
30458;SDS011;17254;50.976;7.034;2022-08-19T01:38:19;40.28;;;30.40;;
30458;SDS011;17254;50.976;7.034;2022-08-19T01:38:52;39.50;;;29.73;;
30458;SDS011;17254;50.976;7.034;2022-08-19T01:39:24;39.08;;;29.80;;
30458;SDS011;17254;50.976;7.034;2022-08-19T01:39:56;36.72;;;28.65;;
30458;SDS011;17254;50.976;7.034;2022-08-19T01:40:31;41.33;;;28.90;;
30458;SDS011;17254;50.976;7.034;2022-08-19T01:41:03;31.98;;;27.48;;
30458;SDS011;17254;50.976;7.034;2022-08-19T01:41:35;35.88;;;28.50;;
30458;SDS011;17254;50.976;7.034;2022-08-19T01:42:08;41.20;;;30.88;;
30458;SDS011;17254;50.976;7.034;2022-08-19T01:42:41;38.60;;;29.40;;
30458;SDS011;17254;50.976;7.034;2022-08-19T01:43:12;39.13;;;28.42;;
30458;SDS011;17254;50.976;7.034;2022-08-19T01:43:45;38.13;;;30.42;;
30458;SDS011;17254;50.976;7.034;2022-08-19T01:44:16;36.65;;;30.52;;
30458;SDS011;17254;50.976;7.034;2022-08-19T01:44:50;36.22;;;29.35;;
30458;SDS011;17254;50.976;7.034;2022-08-19T01:45:24;37.40;;;28.40;;
30458;SDS011;17254;50.976;7.034;2022-08-19T01:45:57;46.15;;;31.17;;
30458;SDS011;17254;50.976;7.034;2022-08-19T01:46:28;46.33;;;30.38;;
30458;SDS011;17254;50.976;7.034;2022-08-19T01:47:00;38.75;;;29.80;;
30458;SDS011;17254;50.976;7.034;2022-08-19T01:47:31;39.75;;;30.17;;
30458;SDS011;17254;50.976;7.034;2022-08-19T01:48:02;39.28;;;31.08;;
30458;SDS011;17254;50.976;7.034;2022-08-19T01:48:35;45.17;;;30.75;;
30458;SDS011;17254;50.976;7.034;2022-08-19T01:49:07;42.15;;;31.60;;
30458;SDS011;17254;50.976;7.034;2022-08-19T01:49:38;37.33;;;30.33;;
30458;SDS011;17254;50.976;7.034;2022-08-19T01:50:11;41.20;;;29.33;;
30458;SDS011;17254;50.976;7.034;2022-08-19T01:50:42;38.63;;;30.45;;
30458;SDS011;17254;50.976;7.034;2022-08-19T01:51:14;38.30;;;29.55;;
30458;SDS011;17254;50.976;7.034;2022-08-19T01:51:49;36.15;;;29.00;;
30458;SDS011;17254;50.976;7.034;2022-08-19T01:52:24;38.03;;;30.45;;
30458;SDS011;17254;50.976;7.034;2022-08-19T01:52:56;41.28;;;30.92;;
30458;SDS011;17254;50.976;7.034;2022-08-19T01:53:30;36.17;;;29.67;;
30458;SDS011;17254;50.976;7.034;2022-08-19T01:54:01;38.53;;;28.95;;
30458;SDS011;17254;50.976;7.034;2022-08-19T01:54:33;36.42;;;28.40;;
30458;SDS011;17254;50.976;7.034;2022-08-19T01:55:06;40.75;;;30.25;;
30458;SDS011;17254;50.976;7.034;2022-08-19T01:55:40;38.92;;;29.92;;
30458;SDS011;17254;50.976;7.034;2022-08-19T01:56:12;36.38;;;28.60;;
30458;SDS011;17254;50.976;7.034;2022-08-19T01:56:44;39.45;;;31.52;;
30458;SDS011;17254;50.976;7.034;2022-08-19T01:57:15;37.65;;;30.52;;
30458;SDS011;17254;50.976;7.034;2022-08-19T01:57:47;39.92;;;31.35;;
30458;SDS011;17254;50.976;7.034;2022-08-19T01:58:22;36.15;;;29.83;;
30458;SDS011;17254;50.976;7.034;2022-08-19T01:59:02;40.17;;;30.98;;
30458;SDS011;17254;50.976;7.034;2022-08-19T01:59:34;40.50;;;31.58;;
30458;SDS011;17254;50.976;7.034;2022-08-19T02:00:08;36.72;;;30.13;;
30458;SDS011;17254;50.976;7.034;2022-08-19T02:00:42;42.13;;;30.48;;
30458;SDS011;17254;50.976;7.034;2022-08-19T02:01:13;39.80;;;31.27;;
30458;SDS011;17254;50.976;7.034;2022-08-19T02:01:46;37.38;;;30.40;;
30458;SDS011;17254;50.976;7.034;2022-08-19T02:02:17;39.92;;;29.98;;
30458;SDS011;17254;50.976;7.034;2022-08-19T02:02:49;43.35;;;30.77;;
30458;SDS011;17254;50.976;7.034;2022-08-19T02:03:21;44.42;;;30.83;;
30458;SDS011;17254;50.976;7.034;2022-08-19T02:03:53;36.63;;;29.83;;
30458;SDS011;17254;50.976;7.034;2022-08-19T02:04:25;43.20;;;32.65;;
30458;SDS011;17254;50.976;7.034;2022-08-19T02:04:57;41.78;;;31.33;;
30458;SDS011;17254;50.976;7.034;2022-08-19T02:05:28;40.50;;;31.50;;
30458;SDS011;17254;50.976;7.034;2022-08-19T02:06:00;37.67;;;31.55;;
30458;SDS011;17254;50.976;7.034;2022-08-19T02:06:35;40.63;;;30.20;;
30458;SDS011;17254;50.976;7.034;2022-08-19T02:07:07;40.67;;;30.45;;
30458;SDS011;17254;50.976;7.034;2022-08-19T02:07:38;42.72;;;31.60;;
30458;SDS011;17254;50.976;7.034;2022-08-19T02:08:12;37.58;;;29.20;;
30458;SDS011;17254;50.976;7.034;2022-08-19T02:08:43;42.83;;;31.15;;
30458;SDS011;17254;50.976;7.034;2022-08-19T02:09:16;35.28;;;28.30;;
30458;SDS011;17254;50.976;7.034;2022-08-19T02:09:48;35.85;;;29.02;;
30458;SDS011;17254;50.976;7.034;2022-08-19T02:10:20;38.40;;;30.88;;
30458;SDS011;17254;50.976;7.034;2022-08-19T02:10:52;38.97;;;30.08;;
30458;SDS011;17254;50.976;7.034;2022-08-19T02:11:26;38.22;;;30.60;;
30458;SDS011;17254;50.976;7.034;2022-08-19T02:12:01;43.45;;;31.33;;
30458;SDS011;17254;50.976;7.034;2022-08-19T02:12:32;34.83;;;28.33;;
30458;SDS011;17254;50.976;7.034;2022-08-19T02:13:08;39.22;;;30.80;;
30458;SDS011;17254;50.976;7.034;2022-08-19T02:13:39;36.92;;;28.70;;
30458;SDS011;17254;50.976;7.034;2022-08-19T02:14:10;40.80;;;31.92;;
30458;SDS011;17254;50.976;7.034;2022-08-19T02:14:43;36.78;;;30.92;;
30458;SDS011;17254;50.976;7.034;2022-08-19T02:15:14;44.78;;;31.30;;
30458;SDS011;17254;50.976;7.034;2022-08-19T02:15:45;37.13;;;29.85;;
30458;SDS011;17254;50.976;7.034;2022-08-19T02:16:17;37.33;;;28.98;;
30458;SDS011;17254;50.976;7.034;2022-08-19T02:16:49;38.38;;;30.30;;
30458;SDS011;17254;50.976;7.034;2022-08-19T02:17:20;39.67;;;30.65;;
30458;SDS011;17254;50.976;7.034;2022-08-19T02:17:51;40.33;;;30.95;;
30458;SDS011;17254;50.976;7.034;2022-08-19T02:18:25;40.47;;;28.90;;
30458;SDS011;17254;50.976;7.034;2022-08-19T02:18:57;37.35;;;29.65;;
30458;SDS011;17254;50.976;7.034;2022-08-19T02:19:30;37.70;;;30.75;;
30458;SDS011;17254;50.976;7.034;2022-08-19T02:20:03;39.60;;;30.80;;
30458;SDS011;17254;50.976;7.034;2022-08-19T02:20:37;41.20;;;31.00;;
30458;SDS011;17254;50.976;7.034;2022-08-19T02:21:09;37.30;;;29.00;;
30458;SDS011;17254;50.976;7.034;2022-08-19T02:21:42;39.75;;;31.48;;
30458;SDS011;17254;50.976;7.034;2022-08-19T02:22:13;42.72;;;32.35;;
30458;SDS011;17254;50.976;7.034;2022-08-19T02:22:44;38.92;;;31.20;;
30458;SDS011;17254;50.976;7.034;2022-08-19T02:23:19;39.67;;;31.10;;
30458;SDS011;17254;50.976;7.034;2022-08-19T02:23:51;36.78;;;30.77;;
30458;SDS011;17254;50.976;7.034;2022-08-19T02:24:23;39.20;;;30.20;;
30458;SDS011;17254;50.976;7.034;2022-08-19T02:24:54;43.00;;;32.25;;
30458;SDS011;17254;50.976;7.034;2022-08-19T02:25:26;38.10;;;30.50;;
30458;SDS011;17254;50.976;7.034;2022-08-19T02:25:57;41.05;;;29.98;;
30458;SDS011;17254;50.976;7.034;2022-08-19T02:26:29;38.72;;;29.85;;
30458;SDS011;17254;50.976;7.034;2022-08-19T02:27:01;38.92;;;30.90;;
30458;SDS011;17254;50.976;7.034;2022-08-19T02:27:32;36.78;;;31.00;;
30458;SDS011;17254;50.976;7.034;2022-08-19T02:28:03;34.03;;;28.90;;
30458;SDS011;17254;50.976;7.034;2022-08-19T02:28:35;41.38;;;32.28;;
30458;SDS011;17254;50.976;7.034;2022-08-19T02:29:09;38.42;;;30.70;;
30458;SDS011;17254;50.976;7.034;2022-08-19T02:29:40;41.35;;;32.85;;
30458;SDS011;17254;50.976;7.034;2022-08-19T02:30:12;37.47;;;29.10;;
30458;SDS011;17254;50.976;7.034;2022-08-19T02:30:47;38.08;;;30.58;;
30458;SDS011;17254;50.976;7.034;2022-08-19T02:31:19;38.63;;;30.63;;
30458;SDS011;17254;50.976;7.034;2022-08-19T02:31:52;40.63;;;32.95;;
30458;SDS011;17254;50.976;7.034;2022-08-19T02:32:24;38.63;;;31.30;;
30458;SDS011;17254;50.976;7.034;2022-08-19T02:32:55;39.38;;;30.75;;
30458;SDS011;17254;50.976;7.034;2022-08-19T02:33:26;36.65;;;29.20;;
30458;SDS011;17254;50.976;7.034;2022-08-19T02:33:58;42.30;;;31.67;;
30458;SDS011;17254;50.976;7.034;2022-08-19T02:34:30;42.30;;;31.38;;
30458;SDS011;17254;50.976;7.034;2022-08-19T02:35:02;39.40;;;30.52;;
30458;SDS011;17254;50.976;7.034;2022-08-19T02:35:34;36.95;;;31.25;;
30458;SDS011;17254;50.976;7.034;2022-08-19T02:36:06;39.67;;;31.50;;
30458;SDS011;17254;50.976;7.034;2022-08-19T02:36:38;38.85;;;32.90;;
30458;SDS011;17254;50.976;7.034;2022-08-19T02:37:10;40.15;;;30.35;;
30458;SDS011;17254;50.976;7.034;2022-08-19T02:38:01;39.83;;;31.20;;
30458;SDS011;17254;50.976;7.034;2022-08-19T02:38:52;39.15;;;31.55;;
30458;SDS011;17254;50.976;7.034;2022-08-19T02:39:26;46.95;;;32.85;;
30458;SDS011;17254;50.976;7.034;2022-08-19T02:39:57;41.20;;;32.88;;
30458;SDS011;17254;50.976;7.034;2022-08-19T02:40:29;40.50;;;31.85;;
30458;SDS011;17254;50.976;7.034;2022-08-19T02:41:05;43.97;;;32.65;;
30458;SDS011;17254;50.976;7.034;2022-08-19T02:41:41;39.78;;;31.83;;
30458;SDS011;17254;50.976;7.034;2022-08-19T02:42:12;41.35;;;31.38;;
30458;SDS011;17254;50.976;7.034;2022-08-19T02:42:43;43.83;;;32.58;;
30458;SDS011;17254;50.976;7.034;2022-08-19T02:43:15;36.97;;;30.58;;
30458;SDS011;17254;50.976;7.034;2022-08-19T02:43:47;39.38;;;29.90;;
30458;SDS011;17254;50.976;7.034;2022-08-19T02:44:19;39.75;;;30.75;;
30458;SDS011;17254;50.976;7.034;2022-08-19T02:44:50;41.47;;;30.95;;
30458;SDS011;17254;50.976;7.034;2022-08-19T02:45:22;39.08;;;31.67;;
30458;SDS011;17254;50.976;7.034;2022-08-19T02:45:53;36.50;;;29.10;;
30458;SDS011;17254;50.976;7.034;2022-08-19T02:46:26;41.38;;;31.65;;
30458;SDS011;17254;50.976;7.034;2022-08-19T02:46:59;40.33;;;30.15;;
30458;SDS011;17254;50.976;7.034;2022-08-19T02:47:30;38.78;;;32.10;;
30458;SDS011;17254;50.976;7.034;2022-08-19T02:48:02;43.53;;;32.80;;
30458;SDS011;17254;50.976;7.034;2022-08-19T02:48:34;39.38;;;30.92;;
30458;SDS011;17254;50.976;7.034;2022-08-19T02:49:06;37.13;;;30.63;;
30458;SDS011;17254;50.976;7.034;2022-08-19T02:49:38;41.65;;;30.95;;
30458;SDS011;17254;50.976;7.034;2022-08-19T02:50:09;44.47;;;31.42;;
30458;SDS011;17254;50.976;7.034;2022-08-19T02:50:40;39.90;;;29.95;;
30458;SDS011;17254;50.976;7.034;2022-08-19T02:51:15;47.28;;;31.50;;
30458;SDS011;17254;50.976;7.034;2022-08-19T02:51:49;36.78;;;29.75;;
30458;SDS011;17254;50.976;7.034;2022-08-19T02:52:20;41.20;;;31.55;;
30458;SDS011;17254;50.976;7.034;2022-08-19T02:52:53;38.00;;;31.45;;
30458;SDS011;17254;50.976;7.034;2022-08-19T02:53:26;43.33;;;33.03;;
30458;SDS011;17254;50.976;7.034;2022-08-19T02:53:59;38.53;;;32.17;;
30458;SDS011;17254;50.976;7.034;2022-08-19T02:54:30;38.88;;;31.65;;
30458;SDS011;17254;50.976;7.034;2022-08-19T02:55:03;43.10;;;31.08;;
30458;SDS011;17254;50.976;7.034;2022-08-19T02:55:34;38.88;;;32.00;;
30458;SDS011;17254;50.976;7.034;2022-08-19T02:56:06;41.05;;;32.63;;
30458;SDS011;17254;50.976;7.034;2022-08-19T02:56:38;45.30;;;32.58;;
30458;SDS011;17254;50.976;7.034;2022-08-19T02:57:12;38.33;;;31.73;;
30458;SDS011;17254;50.976;7.034;2022-08-19T02:57:43;40.35;;;32.45;;
30458;SDS011;17254;50.976;7.034;2022-08-19T02:58:14;48.40;;;32.60;;
30458;SDS011;17254;50.976;7.034;2022-08-19T02:58:46;38.22;;;31.25;;
30458;SDS011;17254;50.976;7.034;2022-08-19T02:59:18;39.97;;;32.45;;
30458;SDS011;17254;50.976;7.034;2022-08-19T02:59:49;42.85;;;33.75;;
30458;SDS011;17254;50.976;7.034;2022-08-19T03:00:20;40.92;;;33.08;;
30458;SDS011;17254;50.976;7.034;2022-08-19T03:00:54;39.90;;;31.42;;
30458;SDS011;17254;50.976;7.034;2022-08-19T03:01:27;39.70;;;31.35;;
30458;SDS011;17254;50.976;7.034;2022-08-19T03:02:18;43.50;;;33.03;;
30458;SDS011;17254;50.976;7.034;2022-08-19T03:04:02;41.70;;;32.45;;
30458;SDS011;17254;50.976;7.034;2022-08-19T03:04:39;44.22;;;32.38;;
30458;SDS011;17254;50.976;7.034;2022-08-19T03:05:13;40.15;;;31.75;;
30458;SDS011;17254;50.976;7.034;2022-08-19T03:05:44;45.92;;;33.22;;
30458;SDS011;17254;50.976;7.034;2022-08-19T03:06:17;42.17;;;33.38;;
30458;SDS011;17254;50.976;7.034;2022-08-19T03:06:49;42.75;;;33.55;;
30458;SDS011;17254;50.976;7.034;2022-08-19T03:07:20;48.30;;;34.35;;
30458;SDS011;17254;50.976;7.034;2022-08-19T03:07:52;50.63;;;35.05;;
30458;SDS011;17254;50.976;7.034;2022-08-19T03:08:23;43.00;;;33.78;;
30458;SDS011;17254;50.976;7.034;2022-08-19T03:08:56;48.58;;;33.08;;
30458;SDS011;17254;50.976;7.034;2022-08-19T03:09:30;48.85;;;32.60;;
30458;SDS011;17254;50.976;7.034;2022-08-19T03:10:04;42.05;;;33.35;;
30458;SDS011;17254;50.976;7.034;2022-08-19T03:10:39;41.33;;;32.30;;
30458;SDS011;17254;50.976;7.034;2022-08-19T03:11:14;44.88;;;34.20;;
30458;SDS011;17254;50.976;7.034;2022-08-19T03:11:47;44.35;;;33.72;;
30458;SDS011;17254;50.976;7.034;2022-08-19T03:12:18;41.40;;;33.17;;
30458;SDS011;17254;50.976;7.034;2022-08-19T03:12:49;43.63;;;32.65;;
30458;SDS011;17254;50.976;7.034;2022-08-19T03:13:21;39.35;;;31.83;;
30458;SDS011;17254;50.976;7.034;2022-08-19T03:14:25;44.97;;;32.17;;